sensor_id;sensor_type;location;lat;lon;timestamp;P1;durP1;ratioP1;P2;durP2;ratioP2
62736;SDS011;48787;46.494;-1.782;2022-09-09T00:00:38;2.67;;;0.50;;
62736;SDS011;48787;46.494;-1.782;2022-09-09T00:03:12;1.85;;;0.70;;
62736;SDS011;48787;46.494;-1.782;2022-09-09T00:08:22;1.63;;;0.47;;
62736;SDS011;48787;46.494;-1.782;2022-09-09T00:10:56;1.48;;;0.60;;
62736;SDS011;48787;46.494;-1.782;2022-09-09T00:13:45;1.25;;;0.60;;
62736;SDS011;48787;46.494;-1.782;2022-09-09T00:16:19;1.10;;;0.50;;
62736;SDS011;48787;46.494;-1.782;2022-09-09T00:18:54;1.60;;;0.50;;
62736;SDS011;48787;46.494;-1.782;2022-09-09T00:21:33;2.50;;;0.80;;
62736;SDS011;48787;46.494;-1.782;2022-09-09T00:23:59;1.58;;;0.55;;
62736;SDS011;48787;46.494;-1.782;2022-09-09T00:26:35;2.15;;;0.55;;
62736;SDS011;48787;46.494;-1.782;2022-09-09T00:31:48;0.93;;;0.38;;
62736;SDS011;48787;46.494;-1.782;2022-09-09T00:34:21;1.35;;;0.50;;
62736;SDS011;48787;46.494;-1.782;2022-09-09T00:36:49;2.05;;;0.68;;
62736;SDS011;48787;46.494;-1.782;2022-09-09T00:39:27;2.58;;;0.63;;
62736;SDS011;48787;46.494;-1.782;2022-09-09T00:44:34;1.08;;;0.57;;
62736;SDS011;48787;46.494;-1.782;2022-09-09T00:49:39;1.58;;;0.60;;
62736;SDS011;48787;46.494;-1.782;2022-09-09T00:52:23;1.70;;;0.60;;
62736;SDS011;48787;46.494;-1.782;2022-09-09T00:57:27;1.15;;;0.50;;
62736;SDS011;48787;46.494;-1.782;2022-09-09T00:59:58;1.05;;;0.60;;
62736;SDS011;48787;46.494;-1.782;2022-09-09T01:04:53;0.90;;;0.50;;
62736;SDS011;48787;46.494;-1.782;2022-09-09T01:07:19;1.20;;;0.50;;
62736;SDS011;48787;46.494;-1.782;2022-09-09T01:12:16;2.38;;;0.50;;
62736;SDS011;48787;46.494;-1.782;2022-09-09T01:14:43;2.60;;;0.68;;
62736;SDS011;48787;46.494;-1.782;2022-09-09T01:22:15;2.72;;;0.57;;
62736;SDS011;48787;46.494;-1.782;2022-09-09T01:27:12;3.00;;;0.60;;
62736;SDS011;48787;46.494;-1.782;2022-09-09T01:29:39;2.28;;;0.65;;
62736;SDS011;48787;46.494;-1.782;2022-09-09T01:34:51;2.05;;;0.60;;
62736;SDS011;48787;46.494;-1.782;2022-09-09T01:37:17;2.60;;;0.60;;
62736;SDS011;48787;46.494;-1.782;2022-09-09T01:39:43;3.90;;;0.50;;
62736;SDS011;48787;46.494;-1.782;2022-09-09T01:42:11;1.83;;;0.52;;
62736;SDS011;48787;46.494;-1.782;2022-09-09T01:44:39;3.47;;;0.60;;
62736;SDS011;48787;46.494;-1.782;2022-09-09T01:47:05;2.15;;;0.70;;
62736;SDS011;48787;46.494;-1.782;2022-09-09T01:55:22;1.38;;;0.63;;
62736;SDS011;48787;46.494;-1.782;2022-09-09T02:00:21;0.90;;;0.50;;
62736;SDS011;48787;46.494;-1.782;2022-09-09T02:05:29;2.03;;;0.50;;
62736;SDS011;48787;46.494;-1.782;2022-09-09T02:08:00;2.40;;;0.60;;
62736;SDS011;48787;46.494;-1.782;2022-09-09T02:10:30;3.72;;;0.65;;
62736;SDS011;48787;46.494;-1.782;2022-09-09T02:13:04;2.38;;;0.50;;
62736;SDS011;48787;46.494;-1.782;2022-09-09T02:15:39;0.85;;;0.40;;
62736;SDS011;48787;46.494;-1.782;2022-09-09T02:18:07;2.78;;;0.80;;
62736;SDS011;48787;46.494;-1.782;2022-09-09T02:20:34;1.75;;;0.65;;
62736;SDS011;48787;46.494;-1.782;2022-09-09T02:23:02;0.85;;;0.52;;
62736;SDS011;48787;46.494;-1.782;2022-09-09T02:25:29;3.47;;;0.60;;
62736;SDS011;48787;46.494;-1.782;2022-09-09T02:27:55;2.15;;;0.60;;
62736;SDS011;48787;46.494;-1.782;2022-09-09T02:30:26;1.73;;;0.43;;
62736;SDS011;48787;46.494;-1.782;2022-09-09T02:32:53;1.67;;;0.60;;
62736;SDS011;48787;46.494;-1.782;2022-09-09T02:35:22;1.13;;;0.50;;
62736;SDS011;48787;46.494;-1.782;2022-09-09T02:37:53;1.08;;;0.60;;
62736;SDS011;48787;46.494;-1.782;2022-09-09T02:40:20;3.03;;;0.63;;
62736;SDS011;48787;46.494;-1.782;2022-09-09T02:42:47;0.80;;;0.60;;
62736;SDS011;48787;46.494;-1.782;2022-09-09T02:45:15;0.80;;;0.40;;
62736;SDS011;48787;46.494;-1.782;2022-09-09T02:50:13;1.35;;;0.50;;
62736;SDS011;48787;46.494;-1.782;2022-09-09T02:55:41;0.52;;;0.40;;
62736;SDS011;48787;46.494;-1.782;2022-09-09T02:58:11;1.70;;;0.40;;
62736;SDS011;48787;46.494;-1.782;2022-09-09T03:00:38;1.60;;;0.60;;
62736;SDS011;48787;46.494;-1.782;2022-09-09T03:03:05;1.65;;;0.50;;
62736;SDS011;48787;46.494;-1.782;2022-09-09T03:05:31;3.05;;;0.60;;
62736;SDS011;48787;46.494;-1.782;2022-09-09T03:07:58;1.02;;;0.40;;
62736;SDS011;48787;46.494;-1.782;2022-09-09T03:10:24;1.27;;;0.57;;
62736;SDS011;48787;46.494;-1.782;2022-09-09T03:12:50;1.40;;;0.45;;
62736;SDS011;48787;46.494;-1.782;2022-09-09T03:15:16;2.17;;;0.77;;
62736;SDS011;48787;46.494;-1.782;2022-09-09T03:17:42;1.60;;;0.80;;
62736;SDS011;48787;46.494;-1.782;2022-09-09T03:20:08;1.45;;;0.60;;
62736;SDS011;48787;46.494;-1.782;2022-09-09T03:22:34;2.55;;;0.88;;
62736;SDS011;48787;46.494;-1.782;2022-09-09T03:25:01;1.27;;;0.65;;
62736;SDS011;48787;46.494;-1.782;2022-09-09T03:27:28;1.27;;;0.43;;
62736;SDS011;48787;46.494;-1.782;2022-09-09T03:29:54;1.50;;;0.60;;
62736;SDS011;48787;46.494;-1.782;2022-09-09T03:32:21;1.65;;;0.50;;
62736;SDS011;48787;46.494;-1.782;2022-09-09T03:34:47;1.80;;;0.50;;
62736;SDS011;48787;46.494;-1.782;2022-09-09T03:37:17;1.05;;;0.40;;
62736;SDS011;48787;46.494;-1.782;2022-09-09T03:39:43;1.77;;;0.52;;
62736;SDS011;48787;46.494;-1.782;2022-09-09T03:42:11;2.63;;;0.70;;
62736;SDS011;48787;46.494;-1.782;2022-09-09T03:44:39;1.23;;;0.50;;
62736;SDS011;48787;46.494;-1.782;2022-09-09T03:47:06;1.30;;;0.40;;
62736;SDS011;48787;46.494;-1.782;2022-09-09T03:49:32;0.82;;;0.45;;
62736;SDS011;48787;46.494;-1.782;2022-09-09T03:51:58;1.67;;;0.73;;
62736;SDS011;48787;46.494;-1.782;2022-09-09T03:54:25;1.15;;;0.70;;
62736;SDS011;48787;46.494;-1.782;2022-09-09T03:56:51;0.85;;;0.40;;
62736;SDS011;48787;46.494;-1.782;2022-09-09T03:59:17;1.70;;;0.60;;
62736;SDS011;48787;46.494;-1.782;2022-09-09T04:01:43;0.82;;;0.40;;
62736;SDS011;48787;46.494;-1.782;2022-09-09T04:04:10;1.30;;;0.52;;
62736;SDS011;48787;46.494;-1.782;2022-09-09T04:06:37;1.27;;;0.40;;
62736;SDS011;48787;46.494;-1.782;2022-09-09T04:09:03;1.38;;;0.50;;
62736;SDS011;48787;46.494;-1.782;2022-09-09T04:11:29;0.75;;;0.30;;
62736;SDS011;48787;46.494;-1.782;2022-09-09T04:13:55;1.98;;;0.70;;
62736;SDS011;48787;46.494;-1.782;2022-09-09T04:16:21;2.42;;;0.68;;
62736;SDS011;48787;46.494;-1.782;2022-09-09T04:18:47;0.85;;;0.50;;
62736;SDS011;48787;46.494;-1.782;2022-09-09T04:21:13;1.02;;;0.50;;
62736;SDS011;48787;46.494;-1.782;2022-09-09T04:23:41;2.03;;;0.57;;
62736;SDS011;48787;46.494;-1.782;2022-09-09T04:26:07;0.82;;;0.40;;
62736;SDS011;48787;46.494;-1.782;2022-09-09T04:28:35;0.82;;;0.38;;
62736;SDS011;48787;46.494;-1.782;2022-09-09T04:31:14;0.90;;;0.38;;
62736;SDS011;48787;46.494;-1.782;2022-09-09T04:33:41;1.85;;;0.55;;
62736;SDS011;48787;46.494;-1.782;2022-09-09T04:36:07;1.05;;;0.47;;
62736;SDS011;48787;46.494;-1.782;2022-09-09T04:38:34;0.90;;;0.47;;
62736;SDS011;48787;46.494;-1.782;2022-09-09T04:41:00;0.90;;;0.40;;
62736;SDS011;48787;46.494;-1.782;2022-09-09T04:43:26;1.30;;;0.60;;
62736;SDS011;48787;46.494;-1.782;2022-09-09T04:45:52;1.35;;;0.55;;
62736;SDS011;48787;46.494;-1.782;2022-09-09T04:48:18;1.80;;;0.63;;
62736;SDS011;48787;46.494;-1.782;2022-09-09T04:50:53;1.10;;;0.52;;
62736;SDS011;48787;46.494;-1.782;2022-09-09T04:53:19;1.98;;;0.60;;
62736;SDS011;48787;46.494;-1.782;2022-09-09T04:55:47;0.80;;;0.52;;
62736;SDS011;48787;46.494;-1.782;2022-09-09T04:58:14;1.45;;;0.60;;
62736;SDS011;48787;46.494;-1.782;2022-09-09T05:00:40;1.42;;;0.50;;
62736;SDS011;48787;46.494;-1.782;2022-09-09T05:03:07;1.05;;;0.55;;
62736;SDS011;48787;46.494;-1.782;2022-09-09T05:05:34;1.13;;;0.52;;
62736;SDS011;48787;46.494;-1.782;2022-09-09T05:08:09;1.35;;;0.50;;
62736;SDS011;48787;46.494;-1.782;2022-09-09T05:10:36;2.28;;;0.68;;
62736;SDS011;48787;46.494;-1.782;2022-09-09T05:13:03;1.95;;;0.70;;
62736;SDS011;48787;46.494;-1.782;2022-09-09T05:15:29;0.80;;;0.30;;
62736;SDS011;48787;46.494;-1.782;2022-09-09T05:17:59;1.45;;;0.55;;
62736;SDS011;48787;46.494;-1.782;2022-09-09T05:20:26;1.15;;;0.43;;
62736;SDS011;48787;46.494;-1.782;2022-09-09T05:22:53;1.60;;;0.50;;
62736;SDS011;48787;46.494;-1.782;2022-09-09T05:25:19;0.65;;;0.40;;
62736;SDS011;48787;46.494;-1.782;2022-09-09T05:27:45;2.85;;;0.50;;
62736;SDS011;48787;46.494;-1.782;2022-09-09T05:30:11;0.90;;;0.55;;
62736;SDS011;48787;46.494;-1.782;2022-09-09T05:32:37;0.77;;;0.40;;
62736;SDS011;48787;46.494;-1.782;2022-09-09T05:35:03;0.82;;;0.40;;
62736;SDS011;48787;46.494;-1.782;2022-09-09T05:37:30;0.70;;;0.40;;
62736;SDS011;48787;46.494;-1.782;2022-09-09T05:39:56;1.00;;;0.50;;
62736;SDS011;48787;46.494;-1.782;2022-09-09T05:42:23;1.27;;;0.50;;
62736;SDS011;48787;46.494;-1.782;2022-09-09T05:44:49;1.38;;;0.47;;
62736;SDS011;48787;46.494;-1.782;2022-09-09T05:47:16;0.70;;;0.43;;
62736;SDS011;48787;46.494;-1.782;2022-09-09T05:49:42;0.28;;;0.28;;
62736;SDS011;48787;46.494;-1.782;2022-09-09T05:52:08;0.93;;;0.40;;
62736;SDS011;48787;46.494;-1.782;2022-09-09T05:54:34;0.90;;;0.40;;
62736;SDS011;48787;46.494;-1.782;2022-09-09T05:57:02;1.35;;;0.60;;
62736;SDS011;48787;46.494;-1.782;2022-09-09T05:59:28;0.93;;;0.60;;
62736;SDS011;48787;46.494;-1.782;2022-09-09T06:01:57;2.08;;;0.70;;
62736;SDS011;48787;46.494;-1.782;2022-09-09T06:04:23;1.13;;;0.60;;
62736;SDS011;48787;46.494;-1.782;2022-09-09T06:06:49;1.13;;;0.60;;
62736;SDS011;48787;46.494;-1.782;2022-09-09T06:09:16;1.35;;;0.50;;
62736;SDS011;48787;46.494;-1.782;2022-09-09T06:11:42;1.75;;;0.70;;
62736;SDS011;48787;46.494;-1.782;2022-09-09T06:14:08;1.13;;;0.50;;
62736;SDS011;48787;46.494;-1.782;2022-09-09T06:16:35;0.80;;;0.55;;
62736;SDS011;48787;46.494;-1.782;2022-09-09T06:19:02;1.75;;;0.70;;
62736;SDS011;48787;46.494;-1.782;2022-09-09T06:21:30;1.90;;;0.60;;
62736;SDS011;48787;46.494;-1.782;2022-09-09T06:23:57;3.58;;;0.70;;
62736;SDS011;48787;46.494;-1.782;2022-09-09T06:26:33;1.17;;;0.52;;
62736;SDS011;48787;46.494;-1.782;2022-09-09T06:28:59;4.37;;;0.87;;
62736;SDS011;48787;46.494;-1.782;2022-09-09T06:31:28;3.05;;;0.65;;
62736;SDS011;48787;46.494;-1.782;2022-09-09T06:33:59;2.22;;;0.73;;
62736;SDS011;48787;46.494;-1.782;2022-09-09T06:36:29;10.40;;;1.67;;
62736;SDS011;48787;46.494;-1.782;2022-09-09T06:38:56;5.63;;;1.67;;
62736;SDS011;48787;46.494;-1.782;2022-09-09T06:41:23;9.23;;;1.73;;
62736;SDS011;48787;46.494;-1.782;2022-09-09T06:43:50;15.30;;;1.90;;
62736;SDS011;48787;46.494;-1.782;2022-09-09T06:46:19;9.27;;;1.45;;
62736;SDS011;48787;46.494;-1.782;2022-09-09T06:48:46;7.80;;;1.40;;
62736;SDS011;48787;46.494;-1.782;2022-09-09T06:53:40;8.00;;;1.92;;
62736;SDS011;48787;46.494;-1.782;2022-09-09T06:58:39;8.27;;;2.10;;
62736;SDS011;48787;46.494;-1.782;2022-09-09T07:01:15;11.80;;;2.05;;
62736;SDS011;48787;46.494;-1.782;2022-09-09T07:03:42;8.25;;;1.45;;
62736;SDS011;48787;46.494;-1.782;2022-09-09T07:06:15;8.77;;;1.83;;
62736;SDS011;48787;46.494;-1.782;2022-09-09T07:08:51;6.90;;;1.42;;
62736;SDS011;48787;46.494;-1.782;2022-09-09T07:11:17;13.27;;;2.33;;
62736;SDS011;48787;46.494;-1.782;2022-09-09T07:13:43;6.28;;;1.45;;
62736;SDS011;48787;46.494;-1.782;2022-09-09T07:16:11;7.28;;;1.35;;
62736;SDS011;48787;46.494;-1.782;2022-09-09T07:18:37;7.70;;;1.55;;
62736;SDS011;48787;46.494;-1.782;2022-09-09T07:21:04;5.55;;;1.33;;
62736;SDS011;48787;46.494;-1.782;2022-09-09T07:23:31;5.53;;;1.15;;
62736;SDS011;48787;46.494;-1.782;2022-09-09T07:25:57;14.38;;;1.33;;
62736;SDS011;48787;46.494;-1.782;2022-09-09T07:28:24;14.18;;;1.92;;
62736;SDS011;48787;46.494;-1.782;2022-09-09T07:30:54;6.32;;;1.75;;
62736;SDS011;48787;46.494;-1.782;2022-09-09T07:33:20;7.68;;;1.80;;
62736;SDS011;48787;46.494;-1.782;2022-09-09T07:35:46;6.93;;;1.52;;
62736;SDS011;48787;46.494;-1.782;2022-09-09T07:38:12;3.50;;;1.05;;
62736;SDS011;48787;46.494;-1.782;2022-09-09T07:40:39;4.75;;;1.45;;
62736;SDS011;48787;46.494;-1.782;2022-09-09T07:43:05;7.53;;;1.42;;
62736;SDS011;48787;46.494;-1.782;2022-09-09T07:45:33;9.48;;;1.48;;
62736;SDS011;48787;46.494;-1.782;2022-09-09T07:47:59;6.90;;;1.27;;
62736;SDS011;48787;46.494;-1.782;2022-09-09T07:50:26;3.85;;;1.15;;
62736;SDS011;48787;46.494;-1.782;2022-09-09T07:52:52;3.85;;;1.10;;
62736;SDS011;48787;46.494;-1.782;2022-09-09T07:55:19;4.90;;;1.40;;
62736;SDS011;48787;46.494;-1.782;2022-09-09T07:57:45;11.18;;;1.50;;
62736;SDS011;48787;46.494;-1.782;2022-09-09T08:00:11;7.03;;;1.27;;
62736;SDS011;48787;46.494;-1.782;2022-09-09T08:02:37;9.00;;;1.35;;
62736;SDS011;48787;46.494;-1.782;2022-09-09T08:05:03;5.40;;;1.33;;
62736;SDS011;48787;46.494;-1.782;2022-09-09T08:07:31;7.00;;;1.60;;
62736;SDS011;48787;46.494;-1.782;2022-09-09T08:09:57;9.90;;;1.48;;
62736;SDS011;48787;46.494;-1.782;2022-09-09T08:12:23;5.57;;;1.40;;
62736;SDS011;48787;46.494;-1.782;2022-09-09T08:14:49;4.32;;;1.30;;
62736;SDS011;48787;46.494;-1.782;2022-09-09T08:17:16;4.72;;;1.20;;
62736;SDS011;48787;46.494;-1.782;2022-09-09T08:19:42;8.13;;;1.83;;
62736;SDS011;48787;46.494;-1.782;2022-09-09T08:22:09;7.00;;;1.42;;
62736;SDS011;48787;46.494;-1.782;2022-09-09T08:24:35;4.20;;;1.10;;
62736;SDS011;48787;46.494;-1.782;2022-09-09T08:27:01;7.00;;;1.35;;
62736;SDS011;48787;46.494;-1.782;2022-09-09T08:29:28;5.97;;;1.27;;
62736;SDS011;48787;46.494;-1.782;2022-09-09T08:31:55;8.73;;;1.63;;
62736;SDS011;48787;46.494;-1.782;2022-09-09T08:34:22;6.30;;;1.52;;
62736;SDS011;48787;46.494;-1.782;2022-09-09T08:36:49;5.75;;;1.17;;
62736;SDS011;48787;46.494;-1.782;2022-09-09T08:39:16;6.88;;;1.52;;
62736;SDS011;48787;46.494;-1.782;2022-09-09T08:46:59;5.75;;;1.27;;
62736;SDS011;48787;46.494;-1.782;2022-09-09T08:52:22;10.50;;;1.17;;
62736;SDS011;48787;46.494;-1.782;2022-09-09T08:54:49;4.75;;;1.20;;
62736;SDS011;48787;46.494;-1.782;2022-09-09T08:57:21;5.32;;;1.25;;
62736;SDS011;48787;46.494;-1.782;2022-09-09T08:59:49;4.18;;;1.20;;
62736;SDS011;48787;46.494;-1.782;2022-09-09T09:02:39;7.47;;;1.63;;
62736;SDS011;48787;46.494;-1.782;2022-09-09T09:05:08;10.27;;;1.63;;
62736;SDS011;48787;46.494;-1.782;2022-09-09T09:10:29;7.20;;;1.33;;
62736;SDS011;48787;46.494;-1.782;2022-09-09T09:13:01;7.18;;;1.30;;
62736;SDS011;48787;46.494;-1.782;2022-09-09T09:15:33;12.75;;;1.58;;
62736;SDS011;48787;46.494;-1.782;2022-09-09T09:18:02;8.25;;;1.75;;
62736;SDS011;48787;46.494;-1.782;2022-09-09T09:23:09;9.20;;;1.48;;
62736;SDS011;48787;46.494;-1.782;2022-09-09T09:25:40;4.68;;;1.27;;
62736;SDS011;48787;46.494;-1.782;2022-09-09T09:28:13;6.82;;;1.30;;
62736;SDS011;48787;46.494;-1.782;2022-09-09T09:30:44;6.20;;;1.38;;
62736;SDS011;48787;46.494;-1.782;2022-09-09T09:33:17;6.82;;;1.35;;
62736;SDS011;48787;46.494;-1.782;2022-09-09T09:35:44;7.85;;;1.10;;
62736;SDS011;48787;46.494;-1.782;2022-09-09T09:38:13;5.88;;;1.05;;
62736;SDS011;48787;46.494;-1.782;2022-09-09T09:40:48;4.15;;;1.20;;
62736;SDS011;48787;46.494;-1.782;2022-09-09T09:43:18;4.90;;;1.23;;
62736;SDS011;48787;46.494;-1.782;2022-09-09T09:45:45;6.22;;;1.30;;
62736;SDS011;48787;46.494;-1.782;2022-09-09T09:48:12;6.10;;;1.60;;
62736;SDS011;48787;46.494;-1.782;2022-09-09T09:53:39;6.38;;;1.30;;
62736;SDS011;48787;46.494;-1.782;2022-09-09T09:56:06;6.28;;;1.17;;
62736;SDS011;48787;46.494;-1.782;2022-09-09T09:58:33;7.38;;;1.20;;
62736;SDS011;48787;46.494;-1.782;2022-09-09T10:01:01;6.15;;;1.10;;
62736;SDS011;48787;46.494;-1.782;2022-09-09T10:03:28;4.72;;;1.45;;
62736;SDS011;48787;46.494;-1.782;2022-09-09T10:05:55;5.78;;;0.93;;
62736;SDS011;48787;46.494;-1.782;2022-09-09T10:08:22;4.53;;;1.10;;
62736;SDS011;48787;46.494;-1.782;2022-09-09T10:24:15;2.40;;;0.88;;
62736;SDS011;48787;46.494;-1.782;2022-09-09T10:37:04;5.50;;;1.38;;
62736;SDS011;48787;46.494;-1.782;2022-09-09T10:39:37;3.35;;;0.85;;
62736;SDS011;48787;46.494;-1.782;2022-09-09T10:42:14;6.82;;;1.15;;
62736;SDS011;48787;46.494;-1.782;2022-09-09T10:49:50;4.32;;;1.15;;
62736;SDS011;48787;46.494;-1.782;2022-09-09T10:52:40;2.38;;;1.00;;
62736;SDS011;48787;46.494;-1.782;2022-09-09T10:55:13;2.55;;;0.90;;
62736;SDS011;48787;46.494;-1.782;2022-09-09T11:00:14;4.63;;;1.05;;
62736;SDS011;48787;46.494;-1.782;2022-09-09T11:02:41;4.57;;;1.23;;
62736;SDS011;48787;46.494;-1.782;2022-09-09T11:07:40;7.93;;;1.10;;
62736;SDS011;48787;46.494;-1.782;2022-09-09T11:13:05;5.70;;;1.15;;
62736;SDS011;48787;46.494;-1.782;2022-09-09T11:15:37;6.70;;;1.40;;
62736;SDS011;48787;46.494;-1.782;2022-09-09T11:18:06;6.85;;;1.20;;
62736;SDS011;48787;46.494;-1.782;2022-09-09T11:20:34;3.90;;;1.00;;
62736;SDS011;48787;46.494;-1.782;2022-09-09T11:23:02;8.75;;;1.48;;
62736;SDS011;48787;46.494;-1.782;2022-09-09T11:25:37;5.93;;;1.30;;
62736;SDS011;48787;46.494;-1.782;2022-09-09T11:33:28;5.53;;;1.30;;
62736;SDS011;48787;46.494;-1.782;2022-09-09T11:38:45;4.50;;;1.27;;
62736;SDS011;48787;46.494;-1.782;2022-09-09T11:41:12;3.10;;;0.85;;
62736;SDS011;48787;46.494;-1.782;2022-09-09T11:43:40;3.40;;;1.10;;
62736;SDS011;48787;46.494;-1.782;2022-09-09T11:46:07;6.03;;;1.17;;
62736;SDS011;48787;46.494;-1.782;2022-09-09T11:48:38;3.22;;;0.90;;
62736;SDS011;48787;46.494;-1.782;2022-09-09T11:51:08;3.38;;;1.02;;
62736;SDS011;48787;46.494;-1.782;2022-09-09T11:53:35;3.25;;;0.70;;
62736;SDS011;48787;46.494;-1.782;2022-09-09T11:58:36;3.92;;;1.10;;
62736;SDS011;48787;46.494;-1.782;2022-09-09T12:01:12;3.60;;;1.08;;
62736;SDS011;48787;46.494;-1.782;2022-09-09T12:08:41;4.55;;;0.90;;
62736;SDS011;48787;46.494;-1.782;2022-09-09T12:11:08;3.42;;;1.13;;
62736;SDS011;48787;46.494;-1.782;2022-09-09T12:13:34;3.85;;;1.20;;
62736;SDS011;48787;46.494;-1.782;2022-09-09T12:16:01;3.20;;;1.00;;
62736;SDS011;48787;46.494;-1.782;2022-09-09T12:24:29;3.38;;;0.80;;
62736;SDS011;48787;46.494;-1.782;2022-09-09T12:34:13;3.70;;;1.10;;
62736;SDS011;48787;46.494;-1.782;2022-09-09T12:36:40;3.20;;;0.77;;
62736;SDS011;48787;46.494;-1.782;2022-09-09T12:39:15;1.88;;;0.90;;
62736;SDS011;48787;46.494;-1.782;2022-09-09T12:41:50;4.00;;;0.80;;
62736;SDS011;48787;46.494;-1.782;2022-09-09T12:44:21;3.55;;;0.90;;
62736;SDS011;48787;46.494;-1.782;2022-09-09T12:46:47;3.25;;;1.00;;
62736;SDS011;48787;46.494;-1.782;2022-09-09T12:54:55;5.65;;;0.95;;
62736;SDS011;48787;46.494;-1.782;2022-09-09T12:57:22;5.63;;;1.20;;
62736;SDS011;48787;46.494;-1.782;2022-09-09T12:59:50;5.70;;;1.27;;
62736;SDS011;48787;46.494;-1.782;2022-09-09T13:02:22;3.70;;;1.30;;
62736;SDS011;48787;46.494;-1.782;2022-09-09T13:04:49;7.20;;;1.20;;
62736;SDS011;48787;46.494;-1.782;2022-09-09T13:07:19;3.67;;;0.73;;
62736;SDS011;48787;46.494;-1.782;2022-09-09T13:09:47;6.45;;;1.05;;
62736;SDS011;48787;46.494;-1.782;2022-09-09T13:12:21;14.15;;;1.23;;
62736;SDS011;48787;46.494;-1.782;2022-09-09T13:14:51;7.82;;;1.20;;
62736;SDS011;48787;46.494;-1.782;2022-09-09T13:17:21;7.07;;;1.10;;
62736;SDS011;48787;46.494;-1.782;2022-09-09T13:19:47;7.40;;;1.30;;
62736;SDS011;48787;46.494;-1.782;2022-09-09T13:22:34;5.15;;;0.90;;
62736;SDS011;48787;46.494;-1.782;2022-09-09T13:27:33;10.35;;;1.45;;
62736;SDS011;48787;46.494;-1.782;2022-09-09T13:30:00;5.03;;;1.10;;
62736;SDS011;48787;46.494;-1.782;2022-09-09T13:32:27;6.70;;;1.27;;
62736;SDS011;48787;46.494;-1.782;2022-09-09T13:34:54;7.47;;;1.38;;
62736;SDS011;48787;46.494;-1.782;2022-09-09T13:39:53;9.30;;;1.52;;
62736;SDS011;48787;46.494;-1.782;2022-09-09T13:42:29;6.70;;;1.00;;
62736;SDS011;48787;46.494;-1.782;2022-09-09T13:44:57;2.47;;;0.98;;
62736;SDS011;48787;46.494;-1.782;2022-09-09T13:47:30;5.82;;;1.27;;
62736;SDS011;48787;46.494;-1.782;2022-09-09T13:49:57;6.28;;;1.58;;
62736;SDS011;48787;46.494;-1.782;2022-09-09T13:52:23;10.57;;;1.30;;
62736;SDS011;48787;46.494;-1.782;2022-09-09T13:54:51;8.13;;;1.33;;
62736;SDS011;48787;46.494;-1.782;2022-09-09T13:57:20;7.28;;;1.00;;
62736;SDS011;48787;46.494;-1.782;2022-09-09T13:59:46;6.55;;;1.20;;
62736;SDS011;48787;46.494;-1.782;2022-09-09T14:02:13;7.53;;;1.08;;
62736;SDS011;48787;46.494;-1.782;2022-09-09T14:04:39;9.82;;;1.20;;
62736;SDS011;48787;46.494;-1.782;2022-09-09T14:07:08;4.10;;;1.30;;
62736;SDS011;48787;46.494;-1.782;2022-09-09T14:09:34;6.90;;;1.10;;
62736;SDS011;48787;46.494;-1.782;2022-09-09T14:12:01;6.97;;;1.25;;
62736;SDS011;48787;46.494;-1.782;2022-09-09T14:14:27;8.18;;;1.00;;
62736;SDS011;48787;46.494;-1.782;2022-09-09T14:16:53;7.93;;;1.20;;
62736;SDS011;48787;46.494;-1.782;2022-09-09T14:19:19;5.15;;;0.93;;
62736;SDS011;48787;46.494;-1.782;2022-09-09T14:21:45;4.18;;;1.10;;
62736;SDS011;48787;46.494;-1.782;2022-09-09T14:24:11;3.30;;;1.15;;
62736;SDS011;48787;46.494;-1.782;2022-09-09T14:26:37;6.47;;;1.23;;
62736;SDS011;48787;46.494;-1.782;2022-09-09T14:29:03;10.73;;;1.38;;
62736;SDS011;48787;46.494;-1.782;2022-09-09T14:31:29;7.30;;;1.38;;
62736;SDS011;48787;46.494;-1.782;2022-09-09T14:33:55;6.22;;;1.20;;
62736;SDS011;48787;46.494;-1.782;2022-09-09T14:36:21;5.82;;;1.25;;
62736;SDS011;48787;46.494;-1.782;2022-09-09T14:38:49;4.63;;;0.93;;
62736;SDS011;48787;46.494;-1.782;2022-09-09T14:41:17;5.05;;;1.10;;
62736;SDS011;48787;46.494;-1.782;2022-09-09T14:43:43;5.97;;;1.13;;
62736;SDS011;48787;46.494;-1.782;2022-09-09T14:46:11;3.88;;;1.00;;
62736;SDS011;48787;46.494;-1.782;2022-09-09T14:48:37;3.88;;;0.90;;
62736;SDS011;48787;46.494;-1.782;2022-09-09T14:51:06;4.88;;;0.98;;
62736;SDS011;48787;46.494;-1.782;2022-09-09T14:53:33;7.40;;;1.08;;
62736;SDS011;48787;46.494;-1.782;2022-09-09T14:56:06;6.22;;;1.10;;
62736;SDS011;48787;46.494;-1.782;2022-09-09T14:58:33;2.28;;;0.68;;
62736;SDS011;48787;46.494;-1.782;2022-09-09T15:01:06;2.83;;;1.02;;
62736;SDS011;48787;46.494;-1.782;2022-09-09T15:03:34;7.57;;;0.80;;
62736;SDS011;48787;46.494;-1.782;2022-09-09T15:06:08;4.47;;;0.80;;
62736;SDS011;48787;46.494;-1.782;2022-09-09T15:08:35;2.83;;;0.90;;
62736;SDS011;48787;46.494;-1.782;2022-09-09T15:11:02;2.70;;;0.82;;
62736;SDS011;48787;46.494;-1.782;2022-09-09T15:13:28;3.83;;;0.90;;
62736;SDS011;48787;46.494;-1.782;2022-09-09T15:15:54;1.35;;;0.63;;
62736;SDS011;48787;46.494;-1.782;2022-09-09T15:18:21;3.38;;;1.05;;
62736;SDS011;48787;46.494;-1.782;2022-09-09T15:20:47;3.15;;;0.77;;
62736;SDS011;48787;46.494;-1.782;2022-09-09T15:23:13;3.72;;;0.60;;
62736;SDS011;48787;46.494;-1.782;2022-09-09T15:25:52;4.57;;;0.93;;
62736;SDS011;48787;46.494;-1.782;2022-09-09T15:28:18;4.10;;;0.90;;
62736;SDS011;48787;46.494;-1.782;2022-09-09T15:30:47;2.63;;;0.60;;
62736;SDS011;48787;46.494;-1.782;2022-09-09T15:33:13;3.22;;;0.80;;
62736;SDS011;48787;46.494;-1.782;2022-09-09T15:35:39;3.28;;;1.13;;
62736;SDS011;48787;46.494;-1.782;2022-09-09T15:38:05;3.92;;;0.90;;
62736;SDS011;48787;46.494;-1.782;2022-09-09T15:40:31;1.40;;;0.60;;
62736;SDS011;48787;46.494;-1.782;2022-09-09T15:42:58;3.58;;;0.82;;
62736;SDS011;48787;46.494;-1.782;2022-09-09T15:45:24;2.13;;;0.82;;
62736;SDS011;48787;46.494;-1.782;2022-09-09T15:47:50;3.05;;;0.70;;
62736;SDS011;48787;46.494;-1.782;2022-09-09T15:50:16;1.73;;;0.60;;
62736;SDS011;48787;46.494;-1.782;2022-09-09T15:52:42;3.58;;;0.50;;
62736;SDS011;48787;46.494;-1.782;2022-09-09T15:55:09;3.33;;;0.77;;
62736;SDS011;48787;46.494;-1.782;2022-09-09T15:57:35;3.15;;;0.90;;
62736;SDS011;48787;46.494;-1.782;2022-09-09T16:00:02;2.78;;;0.68;;
62736;SDS011;48787;46.494;-1.782;2022-09-09T16:02:29;2.92;;;0.75;;
62736;SDS011;48787;46.494;-1.782;2022-09-09T16:04:55;2.05;;;0.52;;
62736;SDS011;48787;46.494;-1.782;2022-09-09T16:07:22;1.33;;;0.60;;
62736;SDS011;48787;46.494;-1.782;2022-09-09T16:09:48;2.60;;;0.70;;
62736;SDS011;48787;46.494;-1.782;2022-09-09T16:12:17;0.70;;;0.50;;
62736;SDS011;48787;46.494;-1.782;2022-09-09T16:14:44;1.42;;;0.73;;
62736;SDS011;48787;46.494;-1.782;2022-09-09T16:17:10;1.40;;;0.50;;
62736;SDS011;48787;46.494;-1.782;2022-09-09T16:19:36;1.13;;;0.60;;
62736;SDS011;48787;46.494;-1.782;2022-09-09T16:22:03;3.10;;;0.70;;
62736;SDS011;48787;46.494;-1.782;2022-09-09T16:24:29;1.30;;;0.52;;
62736;SDS011;48787;46.494;-1.782;2022-09-09T16:26:55;2.03;;;0.70;;
62736;SDS011;48787;46.494;-1.782;2022-09-09T16:29:22;2.85;;;0.60;;
62736;SDS011;48787;46.494;-1.782;2022-09-09T16:31:49;2.40;;;0.60;;
62736;SDS011;48787;46.494;-1.782;2022-09-09T16:34:16;3.17;;;1.15;;
62736;SDS011;48787;46.494;-1.782;2022-09-09T16:36:43;1.10;;;0.70;;
62736;SDS011;48787;46.494;-1.782;2022-09-09T16:39:13;1.92;;;0.50;;
62736;SDS011;48787;46.494;-1.782;2022-09-09T16:41:40;3.17;;;0.63;;
62736;SDS011;48787;46.494;-1.782;2022-09-09T16:44:07;1.50;;;0.75;;
62736;SDS011;48787;46.494;-1.782;2022-09-09T16:46:35;1.55;;;0.60;;
62736;SDS011;48787;46.494;-1.782;2022-09-09T16:49:02;1.85;;;0.65;;
62736;SDS011;48787;46.494;-1.782;2022-09-09T16:51:36;1.02;;;0.68;;
62736;SDS011;48787;46.494;-1.782;2022-09-09T16:54:04;1.80;;;0.65;;
62736;SDS011;48787;46.494;-1.782;2022-09-09T16:56:34;1.75;;;0.70;;
62736;SDS011;48787;46.494;-1.782;2022-09-09T16:59:03;0.63;;;0.50;;
62736;SDS011;48787;46.494;-1.782;2022-09-09T17:01:30;0.57;;;0.47;;